Time;durP1;ratioP1;P1;durP2;ratioP2;P2;SDS_P1;SDS_P2;PMS_P1;PMS_P2;Temp;Humidity;BMP_temperature;BMP_pressure;BME280_temperature;BME280_humidity;BME280_pressure;Samples;Min_cycle;Max_cycle;Signal;HPM_P1;HPM_P2
2023/01/07 00:01:12;;;;;;;5.50;1.00;;;;;;;;;;1735888;80;21006;-46
2023/01/07 00:03:38;;;;;;;5.77;1.10;;;;;;;;;;1739531;80;21789;-46
2023/01/07 00:06:09;;;;;;;4.87;1.10;;;;;;;;;;1738835;80;21030;-46
2023/01/07 00:08:36;;;;;;;3.87;1.43;;;;;;;;;;1742095;80;21421;-47
2023/01/07 00:11:03;;;;;;;4.93;1.20;;;;;;;;;;1739388;80;21033;-47
2023/01/07 00:13:30;;;;;;;3.73;1.10;;;;;;;;;;1744540;80;21877;-45
2023/01/07 00:16:05;;;;;;;3.87;1.13;;;;;;;;;;1740165;80;22256;-46
2023/01/07 00:18:32;;;;;;;4.53;1.23;;;;;;;;;;1739687;80;21446;-45
2023/01/07 00:21:00;;;;;;;4.80;1.37;;;;;;;;;;1730596;80;20989;-47
2023/01/07 00:23:27;;;;;;;4.63;1.10;;;;;;;;;;1698260;84;21455;-47
2023/01/07 00:26:01;;;;;;;4.63;1.60;;;;;;;;;;1731601;82;21001;-45
2023/01/07 00:28:28;;;;;;;2.63;1.00;;;;;;;;;;1732765;82;21759;-46
2023/01/07 00:31:05;;;;;;;3.80;1.50;;;;;;;;;;1735208;82;21049;-46
2023/01/07 00:33:34;;;;;;;5.23;1.20;;;;;;;;;;1733737;80;20999;-45
2023/01/07 00:36:04;;;;;;;3.97;1.10;;;;;;;;;;1733054;82;20997;-46
2023/01/07 00:38:31;;;;;;;3.10;1.57;;;;;;;;;;1736088;82;21547;-45
2023/01/07 00:40:57;;;;;;;3.93;1.07;;;;;;;;;;1722980;82;21872;-45
2023/01/07 00:43:23;;;;;;;3.23;0.97;;;;;;;;;;1735027;80;21053;-46
2023/01/07 00:45:49;;;;;;;2.53;1.00;;;;;;;;;;1732998;82;21720;-46
2023/01/07 00:48:17;;;;;;;3.23;1.00;;;;;;;;;;1726444;82;21053;-46
2023/01/07 00:50:44;;;;;;;4.47;0.83;;;;;;;;;;1696283;82;21009;-47
2023/01/07 00:53:10;;;;;;;2.33;0.90;;;;;;;;;;1733533;82;21848;-46
2023/01/07 00:55:36;;;;;;;4.40;1.43;;;;;;;;;;1727331;82;21014;-46
2023/01/07 00:58:03;;;;;;;4.90;1.30;;;;;;;;;;1732474;82;21614;-46
2023/01/07 01:00:30;;;;;;;3.67;1.00;;;;;;;;;;1730044;82;21074;-47
2023/01/07 01:02:56;;;;;;;4.83;1.20;;;;;;;;;;1730301;82;21046;-46
2023/01/07 01:05:23;;;;;;;2.93;1.13;;;;;;;;;;1730348;82;21934;-47
2023/01/07 01:07:51;;;;;;;2.73;1.13;;;;;;;;;;1733216;82;21243;-47
2023/01/07 01:10:18;;;;;;;3.87;1.73;;;;;;;;;;1732123;82;21626;-45
2023/01/07 01:12:45;;;;;;;4.70;1.40;;;;;;;;;;1731628;82;21059;-46
2023/01/07 01:15:15;;;;;;;3.33;1.10;;;;;;;;;;1736980;80;21100;-47
2023/01/07 01:17:42;;;;;;;7.43;1.73;;;;;;;;;;1730016;81;21878;-49
2023/01/07 01:20:11;;;;;;;3.60;1.43;;;;;;;;;;1731618;82;21049;-47
2023/01/07 01:22:37;;;;;;;5.43;1.20;;;;;;;;;;1696114;83;20972;-45
2023/01/07 01:25:06;;;;;;;4.17;1.67;;;;;;;;;;1733846;80;21076;-45
2023/01/07 01:27:32;;;;;;;4.37;1.10;;;;;;;;;;1701101;84;21461;-46
2023/01/07 01:29:59;;;;;;;3.37;0.93;;;;;;;;;;1735964;82;21783;-45
2023/01/07 01:32:25;;;;;;;2.97;1.43;;;;;;;;;;1733663;82;21233;-45
2023/01/07 01:34:52;;;;;;;3.40;1.00;;;;;;;;;;1728458;80;21103;-46
2023/01/07 01:37:18;;;;;;;6.77;1.27;;;;;;;;;;1734345;80;21064;-46
2023/01/07 01:39:45;;;;;;;4.87;1.27;;;;;;;;;;1712156;82;21076;-46
2023/01/07 01:42:13;;;;;;;1.93;0.90;;;;;;;;;;1727381;82;21874;-45
2023/01/07 01:44:53;;;;;;;3.50;0.97;;;;;;;;;;1731304;82;21029;-46
2023/01/07 01:47:31;;;;;;;9.40;2.70;;;;;;;;;;1723527;80;21163;-46
2023/01/07 01:50:18;;;;;;;10.17;4.20;;;;;;;;;;1733106;82;21088;-46
2023/01/07 01:52:54;;;;;;;7.63;2.67;;;;;;;;;;1736973;81;21069;-46
2023/01/07 01:55:22;;;;;;;6.33;1.30;;;;;;;;;;1729578;82;22693;-46
2023/01/07 01:57:52;;;;;;;2.57;1.20;;;;;;;;;;1698733;82;22221;-46
2023/01/07 02:00:19;;;;;;;3.80;1.17;;;;;;;;;;1733832;82;21085;-45
2023/01/07 02:02:48;;;;;;;2.67;0.83;;;;;;;;;;1731448;82;21703;-46
2023/01/07 02:05:15;;;;;;;2.00;0.80;;;;;;;;;;1736131;82;21057;-45
2023/01/07 02:07:41;;;;;;;1.40;0.70;;;;;;;;;;1725106;80;21776;-45
2023/01/07 02:10:14;;;;;;;2.00;0.90;;;;;;;;;;1734019;82;21323;-46
2023/01/07 02:13:03;;;;;;;2.15;1.25;;;;;;;;;;1735080;82;21434;-46
2023/01/07 02:16:08;;;;;;;5.03;0.80;;;;;;;;;;1693730;84;21653;-45
2023/01/07 02:18:59;;;;;;;3.50;0.82;;;;;;;;;;1733838;80;21053;-44
2023/01/07 02:21:31;;;;;;;2.80;1.47;;;;;;;;;;1732746;80;22776;-45
2023/01/07 02:24:22;;;;;;;1.93;1.17;;;;;;;;;;1730903;80;21065;-46
2023/01/07 02:26:52;;;;;;;2.43;0.60;;;;;;;;;;1735792;80;21681;-45
2023/01/07 02:29:37;;;;;;;1.80;0.80;;;;;;;;;;1732382;80;21610;-46
2023/01/07 02:32:26;;;;;;;1.77;0.90;;;;;;;;;;1733584;80;21084;-45
2023/01/07 02:35:19;;;;;;;3.57;0.80;;;;;;;;;;1732581;81;22585;-45
2023/01/07 02:38:06;;;;;;;1.65;1.17;;;;;;;;;;1737459;80;21049;-46
2023/01/07 02:40:42;;;;;;;1.97;0.70;;;;;;;;;;1693618;81;21045;-46
2023/01/07 02:43:26;;;;;;;2.37;0.90;;;;;;;;;;1738437;80;21119;-45
2023/01/07 02:46:09;;;;;;;2.97;1.30;;;;;;;;;;1737006;80;21076;-45
2023/01/07 02:48:37;;;;;;;;;;;;;;;;;;1732022;80;22520;-45
2023/01/07 02:51:04;;;;;;;1.47;0.80;;;;;;;;;;1736749;80;20829;-44
2023/01/07 02:53:30;;;;;;;4.93;1.23;;;;;;;;;;1738059;80;21112;-45
2023/01/07 02:56:03;;;;;;;1.47;0.60;;;;;;;;;;1735037;80;21057;-46
2023/01/07 02:58:51;;;;;;;5.17;0.90;;;;;;;;;;1738251;80;20998;-47
2023/01/07 03:01:30;;;;;;;2.93;0.70;;;;;;;;;;1733399;80;22532;-46
2023/01/07 03:04:22;;;;;;;2.83;0.70;;;;;;;;;;1739673;80;21679;-46
2023/01/07 03:07:25;;;;;;;2.90;0.90;;;;;;;;;;1734868;80;20986;-46
2023/01/07 03:09:55;;;;;;;1.60;0.70;;;;;;;;;;1727286;80;21048;-46
2023/01/07 03:12:28;;;;;;;2.37;0.83;;;;;;;;;;1702672;82;21100;-47
2023/01/07 03:15:14;;;;;;;2.60;0.80;;;;;;;;;;1741967;80;21841;-45
2023/01/07 03:17:49;;;;;;;1.10;0.60;;;;;;;;;;1734609;80;21073;-45
2023/01/07 03:20:16;;;;;;;3.43;1.00;;;;;;;;;;1729335;80;21083;-45
2023/01/07 03:22:42;;;;;;;3.50;1.43;;;;;;;;;;1732792;81;21019;-45
2023/01/07 03:25:10;;;;;;;2.03;0.73;;;;;;;;;;1733682;81;20958;-45
2023/01/07 03:27:36;;;;;;;2.13;0.90;;;;;;;;;;1732579;81;21810;-45
2023/01/07 03:30:05;;;;;;;2.90;0.90;;;;;;;;;;1710175;82;20972;-45
2023/01/07 03:32:35;;;;;;;2.97;0.87;;;;;;;;;;1731349;81;20968;-46
2023/01/07 03:35:03;;;;;;;2.77;0.80;;;;;;;;;;1735897;81;20993;-45
2023/01/07 03:37:29;;;;;;;2.10;0.80;;;;;;;;;;1729591;81;21071;-45
2023/01/07 03:39:57;;;;;;;2.40;0.80;;;;;;;;;;1730801;81;22573;-45
2023/01/07 03:42:38;;;;;;;4.03;0.80;;;;;;;;;;1736428;81;21552;-45
2023/01/07 03:45:11;;;;;;;2.80;1.00;;;;;;;;;;1736464;81;21074;-46
2023/01/07 03:47:40;;;;;;;3.30;0.80;;;;;;;;;;1731662;81;21059;-44
2023/01/07 03:50:07;;;;;;;2.17;1.10;;;;;;;;;;1734594;81;21093;-44
2023/01/07 03:52:35;;;;;;;2.30;0.90;;;;;;;;;;1736853;80;21855;-45
2023/01/07 03:55:04;;;;;;;1.50;0.80;;;;;;;;;;1734929;81;21066;-45
2023/01/07 03:57:31;;;;;;;2.40;0.90;;;;;;;;;;1730081;81;22372;-44
2023/01/07 03:59:59;;;;;;;4.30;0.80;;;;;;;;;;1732578;81;21405;-44
2023/01/07 04:02:25;;;;;;;1.63;0.87;;;;;;;;;;1692421;82;21387;-44
2023/01/07 04:04:52;;;;;;;1.27;0.63;;;;;;;;;;1725035;81;21841;-44
2023/01/07 04:07:20;;;;;;;3.83;0.80;;;;;;;;;;1730838;81;21058;-44
2023/01/07 04:09:48;;;;;;;5.50;0.80;;;;;;;;;;1723463;81;21051;-44
2023/01/07 04:12:15;;;;;;;6.30;1.00;;;;;;;;;;1736380;81;21373;-44
2023/01/07 04:14:41;;;;;;;2.10;0.93;;;;;;;;;;1703914;81;21537;-44
2023/01/07 04:17:07;;;;;;;3.17;1.03;;;;;;;;;;1732489;81;21835;-44
2023/01/07 04:19:34;;;;;;;1.30;0.77;;;;;;;;;;1733172;80;21080;-44
2023/01/07 04:22:01;;;;;;;4.97;1.00;;;;;;;;;;1733165;82;21561;-44
2023/01/07 04:24:28;;;;;;;2.57;1.00;;;;;;;;;;1737577;82;22308;-45
2023/01/07 04:26:54;;;;;;;4.93;0.87;;;;;;;;;;1731482;82;21037;-44
2023/01/07 04:29:21;;;;;;;5.53;1.10;;;;;;;;;;1732564;82;21888;-44
2023/01/07 04:31:48;;;;;;;2.13;0.90;;;;;;;;;;1736377;82;21169;-44
2023/01/07 04:34:14;;;;;;;2.37;0.70;;;;;;;;;;1734339;80;21096;-44
2023/01/07 04:36:42;;;;;;;2.63;0.80;;;;;;;;;;1726401;80;21617;-45
2023/01/07 04:39:08;;;;;;;5.20;0.97;;;;;;;;;;1730412;80;21049;-44
2023/01/07 04:41:35;;;;;;;2.23;0.70;;;;;;;;;;1729499;82;21931;-44
2023/01/07 04:44:03;;;;;;;2.43;0.90;;;;;;;;;;1732483;82;21482;-44
2023/01/07 04:46:29;;;;;;;3.57;0.83;;;;;;;;;;1695301;82;21090;-44
2023/01/07 04:48:56;;;;;;;1.93;0.87;;;;;;;;;;1730323;80;21142;-45
2023/01/07 04:51:23;;;;;;;1.50;0.80;;;;;;;;;;1733681;80;21128;-44
2023/01/07 04:53:50;;;;;;;1.57;0.80;;;;;;;;;;1732292;82;21838;-45
2023/01/07 04:56:16;;;;;;;3.03;0.83;;;;;;;;;;1732806;82;21837;-44
2023/01/07 04:58:44;;;;;;;3.80;0.77;;;;;;;;;;1708050;82;21053;-45
2023/01/07 05:01:10;;;;;;;4.37;0.87;;;;;;;;;;1735257;82;21116;-45
2023/01/07 05:03:37;;;;;;;2.07;0.97;;;;;;;;;;1732749;80;21089;-44
2023/01/07 05:06:04;;;;;;;2.37;0.90;;;;;;;;;;1690411;84;21923;-44
2023/01/07 05:08:31;;;;;;;3.40;0.93;;;;;;;;;;1737683;82;21057;-44
2023/01/07 05:10:59;;;;;;;3.20;0.80;;;;;;;;;;1736885;82;21346;-44
2023/01/07 05:13:25;;;;;;;2.57;0.80;;;;;;;;;;1738308;82;21854;-45
2023/01/07 05:15:51;;;;;;;2.93;0.80;;;;;;;;;;1733585;82;21052;-44
2023/01/07 05:18:18;;;;;;;2.00;0.80;;;;;;;;;;1701125;82;21840;-44
2023/01/07 05:20:46;;;;;;;2.13;0.80;;;;;;;;;;1730147;80;21500;-44
2023/01/07 05:23:13;;;;;;;2.67;1.03;;;;;;;;;;1728215;80;21128;-44
2023/01/07 05:25:39;;;;;;;3.67;1.20;;;;;;;;;;1738096;80;21088;-44
2023/01/07 05:28:05;;;;;;;2.87;1.13;;;;;;;;;;1747556;80;21085;-44
2023/01/07 05:30:33;;;;;;;2.10;0.80;;;;;;;;;;1734848;80;21077;-44
2023/01/07 05:32:59;;;;;;;3.43;0.90;;;;;;;;;;1739216;80;21495;-44
2023/01/07 05:35:25;;;;;;;2.93;0.97;;;;;;;;;;1734374;80;21068;-44
2023/01/07 05:37:51;;;;;;;3.20;1.77;;;;;;;;;;1725140;80;21116;-44
2023/01/07 05:40:18;;;;;;;2.70;1.20;;;;;;;;;;1741594;80;21057;-44
2023/01/07 05:42:45;;;;;;;3.00;1.10;;;;;;;;;;1732119;80;21794;-44
2023/01/07 05:45:11;;;;;;;3.77;1.27;;;;;;;;;;1735518;80;21495;-44
2023/01/07 05:47:37;;;;;;;3.20;1.13;;;;;;;;;;1738703;80;21021;-44
2023/01/07 05:50:06;;;;;;;4.67;1.93;;;;;;;;;;1738190;80;21010;-44
2023/01/07 05:52:32;;;;;;;2.00;0.80;;;;;;;;;;1740384;80;21058;-44
2023/01/07 05:54:58;;;;;;;2.47;1.03;;;;;;;;;;1735932;80;21756;-44
2023/01/07 05:57:26;;;;;;;3.00;1.10;;;;;;;;;;1736926;80;20985;-44
2023/01/07 05:59:52;;;;;;;3.77;1.53;;;;;;;;;;1737194;80;21476;-44
2023/01/07 06:02:18;;;;;;;2.60;0.90;;;;;;;;;;1739236;80;21037;-45
2023/01/07 06:04:44;;;;;;;2.83;0.90;;;;;;;;;;1748931;80;20979;-44
2023/01/07 06:07:10;;;;;;;1.53;0.80;;;;;;;;;;1744068;80;22911;-45
2023/01/07 06:09:36;;;;;;;1.70;0.73;;;;;;;;;;1698232;82;21149;-44
2023/01/07 06:12:03;;;;;;;3.03;0.90;;;;;;;;;;1693664;83;21030;-44
2023/01/07 06:14:30;;;;;;;3.27;0.83;;;;;;;;;;1728984;80;21025;-44
2023/01/07 06:16:58;;;;;;;2.30;1.30;;;;;;;;;;1697475;82;20975;-44
2023/01/07 06:19:25;;;;;;;3.70;1.07;;;;;;;;;;1698696;82;22394;-44
2023/01/07 06:21:51;;;;;;;2.63;0.90;;;;;;;;;;1737239;81;21380;-44
2023/01/07 06:24:17;;;;;;;4.37;1.30;;;;;;;;;;1740923;81;21044;-45
2023/01/07 06:26:43;;;;;;;1.93;0.80;;;;;;;;;;1739721;81;21026;-45
2023/01/07 06:29:09;;;;;;;2.03;0.97;;;;;;;;;;1734995;81;21017;-46
2023/01/07 06:31:36;;;;;;;2.90;0.93;;;;;;;;;;1735077;81;21809;-44
2023/01/07 06:34:02;;;;;;;3.87;1.00;;;;;;;;;;1738962;81;21088;-45
2023/01/07 06:36:28;;;;;;;2.13;0.80;;;;;;;;;;1734454;81;21028;-44
2023/01/07 06:38:55;;;;;;;3.13;1.03;;;;;;;;;;1735457;81;21102;-44
2023/01/07 06:41:21;;;;;;;3.40;1.57;;;;;;;;;;1736682;81;21589;-44
2023/01/07 06:43:47;;;;;;;3.67;1.40;;;;;;;;;;1734768;81;21784;-45
2023/01/07 06:46:13;;;;;;;4.43;1.67;;;;;;;;;;1733378;81;21048;-44
2023/01/07 06:48:39;;;;;;;2.43;1.17;;;;;;;;;;1735271;81;21075;-44
2023/01/07 06:51:06;;;;;;;3.90;1.43;;;;;;;;;;1736779;81;21711;-44
2023/01/07 06:53:33;;;;;;;3.90;1.27;;;;;;;;;;1735661;81;21029;-44
2023/01/07 06:58:49;;;;;;;2.67;1.30;;;;;;;;;;1864041;75;26485;-44
2023/01/07 07:01:15;;;;;;;6.67;2.10;;;;;;;;;;1840643;76;21299;-44
2023/01/07 07:03:41;;;;;;;4.27;1.50;;;;;;;;;;1841334;75;21812;-44
2023/01/07 07:06:08;;;;;;;4.87;1.33;;;;;;;;;;1836724;76;21125;-43
2023/01/07 07:08:34;;;;;;;4.43;1.13;;;;;;;;;;1837367;76;21016;-44
2023/01/07 07:11:02;;;;;;;4.60;1.40;;;;;;;;;;1837841;75;21074;-46
2023/01/07 07:13:28;;;;;;;5.00;1.40;;;;;;;;;;1836380;75;21012;-46
2023/01/07 07:15:54;;;;;;;4.03;1.37;;;;;;;;;;1829588;75;21886;-45
2023/01/07 07:18:21;;;;;;;2.50;1.17;;;;;;;;;;1835445;76;21021;-46
2023/01/07 07:20:47;;;;;;;3.23;1.10;;;;;;;;;;1833389;76;21799;-45
2023/01/07 07:23:13;;;;;;;2.13;1.00;;;;;;;;;;1804681;78;21053;-46
2023/01/07 07:25:41;;;;;;;3.00;1.20;;;;;;;;;;1803222;77;21048;-46
2023/01/07 07:28:07;;;;;;;3.60;1.40;;;;;;;;;;1793954;78;21744;-45
2023/01/07 07:30:33;;;;;;;3.20;1.10;;;;;;;;;;1801462;77;21024;-46
2023/01/07 07:33:04;;;;;;;3.50;1.70;;;;;;;;;;1785112;77;21613;-46
2023/01/07 07:35:31;;;;;;;10.17;2.20;;;;;;;;;;1795831;77;21814;-45
2023/01/07 07:37:57;;;;;;;5.30;1.27;;;;;;;;;;1800243;77;21104;-46
2023/01/07 07:40:25;;;;;;;5.33;1.97;;;;;;;;;;1799828;77;21840;-46
2023/01/07 07:42:51;;;;;;;9.70;3.43;;;;;;;;;;1796407;78;21458;-46
2023/01/07 07:45:18;;;;;;;10.73;3.50;;;;;;;;;;1798523;78;21064;-46
2023/01/07 07:47:45;;;;;;;9.33;3.50;;;;;;;;;;1801840;78;21566;-45
2023/01/07 07:50:11;;;;;;;9.47;2.27;;;;;;;;;;1791030;78;20966;-46
2023/01/07 07:52:38;;;;;;;5.80;2.20;;;;;;;;;;1790328;78;21798;-45
2023/01/07 07:55:05;;;;;;;3.73;1.43;;;;;;;;;;1799792;77;21337;-45
2023/01/07 07:57:31;;;;;;;2.90;1.27;;;;;;;;;;1794099;77;21612;-46
2023/01/07 07:59:57;;;;;;;4.57;2.10;;;;;;;;;;1805325;77;21116;-46
2023/01/07 08:02:23;;;;;;;6.07;2.43;;;;;;;;;;1791239;78;21024;-47
2023/01/07 08:04:51;;;;;;;6.43;1.73;;;;;;;;;;1802295;78;22548;-46
2023/01/07 08:07:18;;;;;;;8.90;1.90;;;;;;;;;;1799298;78;22182;-47
2023/01/07 08:09:44;;;;;;;8.53;2.30;;;;;;;;;;1789613;77;21087;-45
2023/01/07 08:12:11;;;;;;;4.97;1.97;;;;;;;;;;1790823;77;21040;-45
2023/01/07 08:14:37;;;;;;;7.40;2.27;;;;;;;;;;1805946;78;20963;-46
2023/01/07 08:17:03;;;;;;;5.83;1.77;;;;;;;;;;1803820;77;21820;-45
2023/01/07 08:19:30;;;;;;;5.17;1.80;;;;;;;;;;1789974;77;21057;-47
2023/01/07 08:21:56;;;;;;;6.47;2.10;;;;;;;;;;1801444;78;21476;-46
2023/01/07 08:24:23;;;;;;;6.30;1.80;;;;;;;;;;1804746;78;21332;-45
2023/01/07 08:26:49;;;;;;;6.57;2.43;;;;;;;;;;1793292;78;21640;-46
2023/01/07 08:29:15;;;;;;;13.33;4.30;;;;;;;;;;1796998;77;21840;-47
2023/01/07 08:31:42;;;;;;;6.90;3.07;;;;;;;;;;1806737;78;21064;-45
2023/01/07 08:34:08;;;;;;;5.20;1.67;;;;;;;;;;1804592;78;21555;-46
2023/01/07 08:36:34;;;;;;;5.60;1.60;;;;;;;;;;1792686;78;21009;-45
2023/01/07 08:39:01;;;;;;;9.07;2.70;;;;;;;;;;1802501;77;21483;-47
2023/01/07 08:41:27;;;;;;;4.13;1.47;;;;;;;;;;1802216;77;21901;-47
2023/01/07 08:43:53;;;;;;;6.80;1.50;;;;;;;;;;1803030;77;21155;-45
2023/01/07 08:46:19;;;;;;;8.20;2.73;;;;;;;;;;1795723;78;21021;-46
2023/01/07 08:48:45;;;;;;;6.50;1.97;;;;;;;;;;1800104;78;21033;-46
2023/01/07 08:51:11;;;;;;;7.20;2.37;;;;;;;;;;1804831;77;21433;-47
2023/01/07 08:53:38;;;;;;;8.50;2.30;;;;;;;;;;1806534;77;21790;-46
2023/01/07 08:56:04;;;;;;;8.73;2.23;;;;;;;;;;1801390;78;21052;-46
2023/01/07 08:58:30;;;;;;;7.17;2.10;;;;;;;;;;1800567;77;20958;-46
2023/01/07 09:01:01;;;;;;;6.60;1.93;;;;;;;;;;1802143;77;20989;-46
2023/01/07 09:03:27;;;;;;;4.03;1.73;;;;;;;;;;1784214;77;21016;-45
2023/01/07 09:05:54;;;;;;;6.33;1.63;;;;;;;;;;1797562;77;21831;-46
2023/01/07 09:08:20;;;;;;;7.20;2.03;;;;;;;;;;1785225;77;20966;-46
2023/01/07 09:10:46;;;;;;;5.27;1.57;;;;;;;;;;1800961;77;20988;-47
2023/01/07 09:13:12;;;;;;;4.37;1.80;;;;;;;;;;1806190;78;21031;-46
2023/01/07 09:15:38;;;;;;;5.47;2.00;;;;;;;;;;1809213;77;21017;-45
2023/01/07 09:18:05;;;;;;;5.07;1.87;;;;;;;;;;1795468;77;21772;-46
2023/01/07 09:20:31;;;;;;;4.07;1.60;;;;;;;;;;1802730;78;21081;-46
2023/01/07 09:22:58;;;;;;;7.60;1.47;;;;;;;;;;1793531;78;21572;-46
2023/01/07 09:25:24;;;;;;;3.70;1.70;;;;;;;;;;1802208;78;21064;-46
2023/01/07 09:27:51;;;;;;;6.37;1.63;;;;;;;;;;1800034;77;21033;-45
2023/01/07 09:30:17;;;;;;;4.33;1.50;;;;;;;;;;1802978;77;21837;-47
2023/01/07 09:32:44;;;;;;;5.13;1.47;;;;;;;;;;1791448;78;21112;-46
2023/01/07 09:36:37;;;;;;;4.73;1.80;;;;;;;;;;1804581;78;26823;-46
2023/01/07 09:39:04;;;;;;;6.30;2.03;;;;;;;;;;1769828;79;21026;-47
2023/01/07 09:41:52;;;;;;;5.40;1.90;;;;;;;;;;1771928;79;22739;-45
2023/01/07 09:44:25;;;;;;;10.57;2.13;;;;;;;;;;1772326;79;21107;-44
2023/01/07 09:46:53;;;;;;;;;;;;;;;;;;1768310;79;21052;-45
2023/01/07 09:49:21;;;;;;;5.33;1.63;;;;;;;;;;1777898;79;20833;-45
2023/01/07 09:51:57;;;;;;;6.13;1.87;;;;;;;;;;1768218;79;21536;-45
2023/01/07 09:54:31;;;;;;;8.20;2.00;;;;;;;;;;1765028;79;21895;-48
2023/01/07 09:56:58;;;;;;;4.87;1.50;;;;;;;;;;1774314;78;21523;-44
2023/01/07 09:59:24;;;;;;;6.63;1.83;;;;;;;;;;1771768;79;21070;-44
2023/01/07 10:01:57;;;;;;;8.73;2.50;;;;;;;;;;1768104;79;21085;-44
2023/01/07 10:04:41;;;;;;;5.47;1.77;;;;;;;;;;1768758;79;21055;-46
2023/01/07 12:35:01;;;;;;;7.63;3.57;;;;;;;-6.17;100.00;100851.17;1783290;78;27205;-46
2023/01/07 12:37:41;;;;;;;7.25;1.98;;;;;;;-6.03;100.00;100870.00;1767787;79;21576;-45
2023/01/07 12:40:19;;;;;;;7.77;2.60;;;;;;;-5.88;100.00;100864.44;1772636;79;21096;-45
2023/01/07 12:42:57;;;;;;;9.63;3.13;;;;;;;-5.77;100.00;100866.53;1782196;79;21040;-44
2023/01/07 12:45:30;;;;;;;9.13;2.97;;;;;;;-5.73;100.00;100868.44;1776068;79;21524;-44
2023/01/07 12:48:01;;;;;;;7.07;2.53;;;;;;;-5.75;100.00;100870.11;1773582;79;21059;-45
2023/01/07 12:50:39;;;;;;;8.67;3.50;;;;;;;-5.73;100.00;100856.64;1775799;79;21032;-45
2023/01/07 12:53:17;;;;;;;3.70;1.67;;;;;;;-5.66;100.00;100860.36;1776546;79;21459;-45
2023/01/07 12:55:50;;;;;;;6.70;1.40;;;;;;;-5.61;100.00;100858.77;1774873;79;21084;-45
2023/01/07 12:58:48;;;;;;;5.77;2.57;;;;;;;-5.57;100.00;100867.23;1772160;79;21011;-45
2023/01/07 13:01:28;;;;;;;6.17;2.07;;;;;;;-5.56;100.00;100868.13;1779279;79;21028;-45
2023/01/07 13:04:52;;;;;;;7.60;2.23;;;;;;;-5.57;100.00;100873.78;1776089;79;21654;-46
2023/01/07 13:07:23;;;;;;;6.00;1.67;;;;;;;-5.59;100.00;100875.88;1781883;79;22016;-45
2023/01/07 13:10:01;;;;;;;4.07;1.47;;;;;;;-5.59;100.00;100885.95;1751029;80;21545;-46
2023/01/07 13:12:41;;;;;;;8.33;1.93;;;;;;;-5.58;100.00;100881.18;1778438;79;21371;-45
2023/01/07 13:15:25;;;;;;;6.70;2.20;;;;;;;-5.58;100.00;100881.18;1771336;79;21047;-45
2023/01/07 13:17:52;;;;;;;7.37;2.07;;;;;;;-5.58;100.00;100880.28;1780510;79;22299;-45
2023/01/07 13:20:48;;;;;;;4.33;2.03;;;;;;;-5.61;100.00;100878.44;1778067;79;21684;-46
2023/01/07 13:23:34;;;;;;;5.73;2.00;;;;;;;-5.62;100.00;100879.31;1773152;79;21072;-46
2023/01/07 13:26:36;;;;;;;8.80;3.23;;;;;;;-5.63;100.00;100871.38;1778347;79;21060;-45
2023/01/07 13:29:44;;;;;;;6.73;2.83;;;;;;;-5.63;100.00;100876.63;1789022;79;21025;-45
2023/01/07 13:32:46;;;;;;;6.57;2.27;;;;;;;-5.67;100.00;100876.03;1772398;79;21185;-46
2023/01/07 13:35:39;;;;;;;7.03;1.87;;;;;;;-5.71;100.00;100875.06;1728854;81;21579;-44
2023/01/07 13:38:29;;;;;;;3.63;2.00;;;;;;;-5.76;100.00;100870.95;1722731;81;21123;-46
2023/01/07 13:41:24;;;;;;;8.23;2.87;;;;;;;-5.79;100.00;100881.35;1758945;79;21060;-45
2023/01/07 13:44:18;;;;;;;7.27;2.60;;;;;;;-5.84;100.00;100888.14;1727788;79;22167;-45
2023/01/07 13:46:45;;;;;;;7.20;2.93;;;;;;;-5.90;100.00;100894.95;1771076;79;21099;-46
2023/01/07 13:49:25;;;;;;;8.67;2.30;;;;;;;-5.97;100.00;100906.05;1770752;79;22432;-46
2023/01/07 13:51:51;;;;;;;16.63;4.93;;;;;;;-6.01;100.00;100910.70;1769422;79;21360;-45
2023/01/07 13:54:49;;;;;;;6.50;3.17;;;;;;;-6.05;100.00;100912.75;1773015;79;21058;-45
2023/01/07 13:57:32;;;;;;;11.37;2.97;;;;;;;-6.08;100.00;100914.83;1769850;79;22164;-46
2023/01/07 13:59:59;;;;;;;10.03;4.03;;;;;;;-6.13;100.00;100922.95;1773289;79;21091;-45
2023/01/07 14:02:28;;;;;;;15.93;4.87;;;;;;;-6.25;100.00;100926.00;1767049;79;21883;-45
2023/01/07 14:05:22;;;;;;;13.50;4.07;;;;;;;-6.28;100.00;100924.56;1760147;79;21071;-45
2023/01/07 14:07:54;;;;;;;14.40;4.90;;;;;;;-6.30;100.00;100929.30;1769252;79;21047;-45
2023/01/07 14:10:32;;;;;;;15.93;5.20;;;;;;;-6.30;100.00;100918.81;1764163;79;21102;-45
2023/01/07 14:13:37;;;;;;;22.47;7.50;;;;;;;-6.31;100.00;100919.64;1768975;79;21497;-45
2023/01/07 14:16:19;;;;;;;11.97;6.65;;;;;;;-6.33;100.00;100918.69;1775391;79;21731;-46
2023/01/07 14:19:13;;;;;;;12.03;4.47;;;;;;;-6.33;100.00;100912.14;1762966;79;21068;-46
2023/01/07 14:22:01;;;;;;;9.53;3.87;;;;;;;-6.34;100.00;100923.45;1772979;79;21024;-45
2023/01/07 14:25:05;;;;;;;12.57;4.00;;;;;;;-6.37;100.00;100929.45;1770129;79;21529;-45
2023/01/07 14:27:57;;;;;;;10.23;3.97;;;;;;;-6.41;100.00;100934.53;1769019;79;21055;-45
2023/01/07 14:30:44;;;;;;;14.30;4.57;;;;;;;-6.44;100.00;100931.78;1764946;79;22060;-45
2023/01/07 14:33:23;;;;;;;12.73;4.13;;;;;;;-6.47;100.00;100926.03;1770355;79;21993;-44
2023/01/07 14:36:03;;;;;;;17.20;5.50;;;;;;;-6.48;100.00;100934.72;1765922;79;22235;-44
2023/01/07 14:38:36;;;;;;;17.80;6.27;;;;;;;-6.53;100.00;100931.91;1764538;79;21117;-47
2023/01/07 14:41:12;;;;;;;16.37;5.63;;;;;;;-6.55;100.00;100937.95;1767906;79;21051;-44
2023/01/07 14:43:47;;;;;;;6.23;3.40;;;;;;;-6.57;100.00;100943.53;1766835;79;22534;-45
2023/01/07 14:46:37;;;;;;;12.05;3.00;;;;;;;-6.60;100.00;100949.95;1774235;79;21139;-47
2023/01/07 14:49:23;;;;;;;13.03;3.60;;;;;;;-6.62;100.00;100945.95;1775431;79;21063;-44
2023/01/07 14:52:16;;;;;;;11.03;3.10;;;;;;;-6.65;100.00;100952.81;1766486;79;21153;-44
2023/01/07 14:55:28;;;;;;;12.97;4.90;;;;;;;-6.66;100.00;100961.50;1774632;78;21013;-46
2023/01/07 14:58:33;;;;;;;13.80;5.13;;;;;;;-6.65;100.00;100959.36;1770576;79;21770;-45
2023/01/07 15:01:32;;;;;;;12.98;4.65;;;;;;;-6.66;100.00;100961.50;1777715;79;21024;-45
2023/01/07 15:21:51;;;;;;;24.47;11.17;;;;;;;-6.44;100.00;100947.09;1770236;78;28087;-46
2023/01/07 15:24:26;;;;;;;24.07;9.27;;;;;;;-6.44;100.00;100956.25;1749582;80;21071;-47
2023/01/07 15:27:07;;;;;;;17.20;7.73;;;;;;;-144.06;100.00;116433.64;1769715;79;21806;-44
2023/01/07 18:22:13;;;;;;;10.80;2.70;;;;;;;;;;1791451;77;24531;-45
2023/01/07 18:24:39;;;;;;;11.53;4.80;;;;;;;;;;1770294;78;21072;-44
2023/01/07 18:27:05;;;;;;;16.30;6.53;;;;;;;;;;1766558;79;21903;-43
2023/01/07 18:29:31;;;;;;;13.77;5.00;;;;;;;;;;1773846;78;21092;-44
2023/01/07 18:31:57;;;;;;;11.53;3.90;;;;;;;;;;1768972;79;21074;-45
2023/01/07 18:34:24;;;;;;;18.13;5.40;;;;;;;;;;1772477;78;21073;-44
2023/01/07 18:36:50;;;;;;;9.40;3.90;;;;;;;;;;1770208;78;21102;-45
2023/01/07 18:39:16;;;;;;;11.97;3.80;;;;;;;;;;1772439;78;21806;-45
2023/01/07 18:41:42;;;;;;;10.97;3.50;;;;;;;;;;1774663;78;21377;-44
2023/01/07 18:44:08;;;;;;;11.80;3.57;;;;;;;;;;1773722;79;21315;-44
2023/01/07 18:46:34;;;;;;;14.63;5.13;;;;;;;;;;1769740;78;21047;-44
2023/01/07 18:49:01;;;;;;;14.67;4.50;;;;;;;;;;1764705;78;21064;-45
2023/01/07 18:51:27;;;;;;;10.47;3.30;;;;;;;;;;1774170;79;21773;-46
2023/01/07 18:53:53;;;;;;;14.43;3.67;;;;;;;;;;1771038;78;21104;-45
2023/01/07 18:56:20;;;;;;;16.73;4.23;;;;;;;;;;1770809;78;21639;-45
2023/01/07 18:58:47;;;;;;;11.67;3.23;;;;;;;;;;1765631;79;21077;-46
2023/01/07 19:01:13;;;;;;;6.90;2.77;;;;;;;;;;1739844;80;21563;-44
2023/01/07 19:03:39;;;;;;;9.07;2.63;;;;;;;;;;1768451;78;21369;-44
2023/01/07 19:06:07;;;;;;;7.90;2.63;;;;;;;;;;1772633;78;21373;-43
2023/01/07 19:08:33;;;;;;;3.63;1.53;;;;;;;;;;1765280;79;20996;-44
2023/01/07 19:11:00;;;;;;;6.90;1.73;;;;;;;;;;1761007;78;21492;-44
2023/01/07 19:13:26;;;;;;;3.33;1.47;;;;;;;;;;1753008;80;21054;-46
2023/01/07 19:15:53;;;;;;;4.10;1.40;;;;;;;;;;1753923;80;21733;-45
2023/01/07 19:18:19;;;;;;;5.13;1.90;;;;;;;;;;1746056;80;21021;-44
2023/01/07 19:20:45;;;;;;;5.60;1.73;;;;;;;;;;1746955;80;20970;-44
2023/01/07 19:23:11;;;;;;;4.77;1.63;;;;;;;;;;1741796;80;20990;-45
2023/01/07 19:25:38;;;;;;;3.23;1.50;;;;;;;;;;1741435;80;20978;-45
2023/01/07 19:28:04;;;;;;;6.07;1.57;;;;;;;;;;1745379;80;22846;-46
2023/01/07 19:30:30;;;;;;;5.40;1.50;;;;;;;;;;1740599;80;21114;-43
2023/01/07 19:32:57;;;;;;;3.90;1.57;;;;;;;;;;1742666;80;21649;-46
2023/01/07 19:35:23;;;;;;;3.73;1.50;;;;;;;;;;1744090;80;20985;-46
2023/01/07 19:37:50;;;;;;;7.73;1.50;;;;;;;;;;1741050;80;21009;-46
2023/01/07 19:40:16;;;;;;;6.17;1.43;;;;;;;;;;1744555;80;22868;-45
2023/01/07 19:42:42;;;;;;;3.60;1.80;;;;;;;;;;1738898;80;21100;-45
2023/01/07 19:45:09;;;;;;;5.40;1.63;;;;;;;;;;1739872;80;21042;-46
2023/01/07 19:47:38;;;;;;;4.53;1.10;;;;;;;;;;1739926;80;21609;-45
2023/01/07 19:50:05;;;;;;;5.20;1.57;;;;;;;;;;1744500;80;21811;-44
2023/01/07 19:52:31;;;;;;;5.10;1.47;;;;;;;;;;1746675;80;21805;-46
2023/01/07 19:54:58;;;;;;;9.17;2.33;;;;;;;;;;1741646;80;21001;-45
2023/01/07 19:57:25;;;;;;;6.13;1.97;;;;;;;;;;1749287;80;20980;-44
2023/01/07 19:59:51;;;;;;;7.10;1.57;;;;;;;;;;1699399;83;21011;-45
2023/01/07 20:02:17;;;;;;;3.20;1.40;;;;;;;;;;1708058;82;21541;-44
2023/01/07 20:04:43;;;;;;;5.60;1.40;;;;;;;;;;1737052;80;21749;-44